Time;durP1;ratioP1;P1;durP2;ratioP2;P2;SDS_P1;SDS_P2;PMS_P1;PMS_P2;Temp;Humidity;BMP_temperature;BMP_pressure;BME280_temperature;BME280_humidity;BME280_pressure;Samples;Min_cycle;Max_cycle;Signal;HPM_P1;HPM_P2
2022/10/19 00:01:51;;;;;;;8.20;6.22;;;;;;;;;;6307449;22;20000;-86
2022/10/19 00:04:17;;;;;;;10.48;6.95;;;;;;;;;;6307318;22;20011;-85
2022/10/19 00:06:44;;;;;;;9.55;6.88;;;;;;;;;;6306060;22;20017;-83
2022/10/19 00:09:12;;;;;;;8.88;6.43;;;;;;;;;;6307417;22;20025;-81
2022/10/19 00:11:40;;;;;;;8.73;7.03;;;;;;;;;;6280457;22;20000;-87
2022/10/19 00:14:06;;;;;;;9.02;6.93;;;;;;;;;;6307239;22;20023;-85
2022/10/19 00:16:34;;;;;;;9.27;6.95;;;;;;;;;;6307586;22;19999;-87
2022/10/19 00:19:01;;;;;;;8.73;6.70;;;;;;;;;;6307137;22;19995;-84
2022/10/19 00:21:27;;;;;;;7.60;6.80;;;;;;;;;;6307359;22;20084;-83
2022/10/19 00:23:53;;;;;;;9.18;8.02;;;;;;;;;;6306052;22;20497;-87
2022/10/19 00:26:19;;;;;;;9.63;7.43;;;;;;;;;;6307415;22;20370;-86
2022/10/19 00:28:46;;;;;;;10.60;7.47;;;;;;;;;;6307241;22;20007;-85
2022/10/19 00:31:14;;;;;;;8.52;7.10;;;;;;;;;;6305678;22;20427;-80
2022/10/19 00:33:40;;;;;;;10.43;7.82;;;;;;;;;;6307258;22;20010;-86
2022/10/19 00:36:13;;;;;;;8.95;7.38;;;;;;;;;;6305505;22;20003;-87
2022/10/19 00:38:40;;;;;;;10.48;7.72;;;;;;;;;;6305852;22;19996;-86
2022/10/19 00:41:08;;;;;;;9.93;7.63;;;;;;;;;;6307118;22;20027;-82
2022/10/19 00:43:54;;;;;;;10.90;7.80;;;;;;;;;;6307191;22;19999;-83
2022/10/19 00:46:21;;;;;;;10.20;7.88;;;;;;;;;;6291556;22;20003;-83
2022/10/19 00:48:47;;;;;;;15.38;9.60;;;;;;;;;;6306654;22;20314;-84
2022/10/19 00:51:13;;;;;;;10.10;7.30;;;;;;;;;;6306989;22;20003;-86
2022/10/19 00:53:39;;;;;;;9.18;7.47;;;;;;;;;;6305340;22;20030;-84
2022/10/19 00:56:09;;;;;;;8.65;6.68;;;;;;;;;;6305544;22;20426;-86
2022/10/19 00:58:35;;;;;;;8.60;7.00;;;;;;;;;;6307054;22;20433;-84
2022/10/19 01:01:03;;;;;;;8.57;6.80;;;;;;;;;;6306972;22;20074;-87
2022/10/19 01:03:29;;;;;;;9.60;6.70;;;;;;;;;;6306665;22;20003;-86
2022/10/19 01:05:56;;;;;;;9.50;7.05;;;;;;;;;;6306895;22;20465;-80
2022/10/19 01:08:22;;;;;;;8.00;5.90;;;;;;;;;;6305642;22;20082;-84
2022/10/19 01:10:57;;;;;;;10.85;7.07;;;;;;;;;;6306954;22;20431;-83
2022/10/19 01:13:42;;;;;;;8.15;6.53;;;;;;;;;;6306868;22;19996;-86
2022/10/19 01:16:17;;;;;;;10.55;7.20;;;;;;;;;;6306976;22;20059;-88
2022/10/19 01:18:44;;;;;;;8.55;7.22;;;;;;;;;;6306951;22;20137;-82
2022/10/19 01:21:10;;;;;;;9.25;6.85;;;;;;;;;;6306714;22;20007;-84
2022/10/19 01:23:36;;;;;;;8.60;6.53;;;;;;;;;;6307043;22;20005;-85
2022/10/19 01:26:20;;;;;;;8.02;7.18;;;;;;;;;;6306838;22;19999;-82
2022/10/19 01:29:05;;;;;;;8.82;6.80;;;;;;;;;;6305546;22;20035;-88
2022/10/19 01:31:31;;;;;;;;;;;;;;;;;;6307513;22;19999;-88
2022/10/19 01:34:11;;;;;;;9.73;7.10;;;;;;;;;;6305034;22;19925;-88
2022/10/19 01:36:55;;;;;;;8.48;6.63;;;;;;;;;;6306626;22;20021;-86
2022/10/19 01:39:21;;;;;;;7.60;5.93;;;;;;;;;;6306750;22;19996;-82
2022/10/19 01:41:48;;;;;;;8.25;6.97;;;;;;;;;;6306835;22;19995;-86
2022/10/19 01:44:29;;;;;;;9.02;7.13;;;;;;;;;;6305105;22;20034;-80
2022/10/19 01:46:57;;;;;;;7.72;6.03;;;;;;;;;;6306917;22;19999;-83
2022/10/19 01:49:26;;;;;;;8.73;6.78;;;;;;;;;;6306588;22;20007;-85
2022/10/19 01:51:55;;;;;;;8.32;6.55;;;;;;;;;;6306779;22;20434;-81
2022/10/19 01:54:22;;;;;;;7.43;5.88;;;;;;;;;;6305194;22;19999;-86
2022/10/19 01:56:49;;;;;;;7.05;6.03;;;;;;;;;;6306879;22;19995;-86
2022/10/19 01:59:17;;;;;;;9.30;6.05;;;;;;;;;;6306881;22;19995;-86
2022/10/19 02:01:44;;;;;;;8.23;6.18;;;;;;;;;;6305243;22;20008;-82
2022/10/19 02:04:12;;;;;;;8.75;6.15;;;;;;;;;;6304772;22;20439;-82
2022/10/19 02:06:38;;;;;;;7.32;6.50;;;;;;;;;;6306886;22;20467;-81
2022/10/19 02:09:04;;;;;;;7.45;6.18;;;;;;;;;;6304941;22;20316;-85
2022/10/19 02:11:31;;;;;;;7.32;6.43;;;;;;;;;;6306740;22;20000;-85
2022/10/19 02:14:03;;;;;;;8.73;6.80;;;;;;;;;;6306690;22;20053;-86
2022/10/19 02:16:32;;;;;;;7.97;6.35;;;;;;;;;;6306839;22;20006;-84
2022/10/19 02:19:00;;;;;;;7.07;6.35;;;;;;;;;;6306111;22;19999;-88
2022/10/19 02:21:26;;;;;;;7.25;6.32;;;;;;;;;;6308744;22;20005;-88
2022/10/19 02:23:53;;;;;;;9.40;6.43;;;;;;;;;;6308414;22;19999;-82
2022/10/19 02:26:19;;;;;;;7.63;6.72;;;;;;;;;;6307004;22;20036;-81
2022/10/19 02:28:45;;;;;;;9.55;7.10;;;;;;;;;;6308572;22;19999;-86
2022/10/19 02:31:12;;;;;;;11.15;9.43;;;;;;;;;;6308304;22;20423;-83
2022/10/19 02:33:38;;;;;;;14.18;11.88;;;;;;;;;;6308471;22;19999;-87
2022/10/19 02:36:04;;;;;;;13.57;8.25;;;;;;;;;;6308249;22;20002;-83
2022/10/19 02:38:30;;;;;;;10.13;7.78;;;;;;;;;;6308567;22;20003;-83
2022/10/19 02:41:03;;;;;;;8.52;7.60;;;;;;;;;;6308616;22;19992;-84
2022/10/19 02:43:31;;;;;;;9.82;7.93;;;;;;;;;;6308401;22;20010;-87
2022/10/19 02:46:02;;;;;;;11.93;7.65;;;;;;;;;;6308311;22;20026;-88
2022/10/19 02:48:30;;;;;;;10.25;8.30;;;;;;;;;;6308496;22;20003;-89
2022/10/19 02:50:56;;;;;;;10.57;7.90;;;;;;;;;;6308037;22;20074;-86
2022/10/19 02:53:22;;;;;;;11.00;7.93;;;;;;;;;;6308152;22;20327;-81
2022/10/19 02:55:49;;;;;;;9.60;7.47;;;;;;;;;;6306739;22;20056;-84
2022/10/19 02:58:15;;;;;;;9.43;7.53;;;;;;;;;;6308312;22;20003;-87
2022/10/19 03:00:41;;;;;;;8.02;7.07;;;;;;;;;;6308177;22;19992;-84
2022/10/19 03:03:08;;;;;;;9.30;7.05;;;;;;;;;;6308079;22;20048;-85
2022/10/19 03:05:35;;;;;;;11.10;7.82;;;;;;;;;;6308069;22;20015;-84
2022/10/19 03:08:01;;;;;;;10.13;7.85;;;;;;;;;;6308044;22;20026;-83
2022/10/19 03:10:27;;;;;;;9.32;7.70;;;;;;;;;;6308157;22;20084;-82
2022/10/19 03:12:53;;;;;;;14.27;7.85;;;;;;;;;;6308181;22;20008;-85
2022/10/19 03:15:19;;;;;;;10.07;7.53;;;;;;;;;;6308026;22;19999;-87
2022/10/19 03:17:45;;;;;;;9.18;7.78;;;;;;;;;;6308108;22;20001;-81
2022/10/19 03:20:12;;;;;;;13.63;12.23;;;;;;;;;;6307849;22;20018;-84
2022/10/19 03:22:38;;;;;;;14.63;11.40;;;;;;;;;;6308079;22;20002;-85
2022/10/19 03:25:04;;;;;;;14.07;11.93;;;;;;;;;;6307979;22;20128;-85
2022/10/19 03:27:30;;;;;;;12.05;10.18;;;;;;;;;;6307985;22;19999;-89
2022/10/19 03:29:56;;;;;;;9.95;8.90;;;;;;;;;;6307385;22;20007;-86
2022/10/19 03:32:22;;;;;;;10.15;8.45;;;;;;;;;;6307801;22;20030;-87
2022/10/19 03:34:48;;;;;;;12.52;8.63;;;;;;;;;;6307920;22;20496;-81
2022/10/19 03:37:14;;;;;;;11.27;9.15;;;;;;;;;;6307659;22;20023;-85
2022/10/19 03:39:40;;;;;;;14.18;9.70;;;;;;;;;;6307805;22;20004;-87
2022/10/19 03:42:06;;;;;;;13.85;9.75;;;;;;;;;;6307645;22;20002;-83
2022/10/19 03:44:32;;;;;;;12.73;8.98;;;;;;;;;;6307776;22;20026;-84
2022/10/19 03:46:58;;;;;;;13.60;8.88;;;;;;;;;;6306346;22;20014;-86
2022/10/19 03:49:25;;;;;;;11.90;8.38;;;;;;;;;;6306025;22;20003;-82
2022/10/19 03:51:51;;;;;;;22.98;13.60;;;;;;;;;;6306650;22;20084;-86
2022/10/19 03:54:17;;;;;;;23.30;17.75;;;;;;;;;;6307328;22;20007;-83
2022/10/19 03:56:43;;;;;;;17.05;13.02;;;;;;;;;;6307674;22;19999;-89
2022/10/19 03:59:28;;;;;;;23.08;15.85;;;;;;;;;;6307842;22;20004;-83
2022/10/19 04:01:54;;;;;;;20.42;15.80;;;;;;;;;;6307697;22;20006;-81
2022/10/19 04:04:20;;;;;;;16.23;10.63;;;;;;;;;;6307205;22;20011;-85
2022/10/19 04:06:48;;;;;;;10.70;7.47;;;;;;;;;;6280018;22;20335;-86
2022/10/19 04:09:18;;;;;;;8.50;6.68;;;;;;;;;;6307273;22;20422;-86
2022/10/19 04:11:46;;;;;;;10.35;7.55;;;;;;;;;;6305636;22;20140;-89
2022/10/19 04:14:13;;;;;;;13.80;9.75;;;;;;;;;;6306865;22;20007;-86
2022/10/19 04:16:40;;;;;;;10.90;8.38;;;;;;;;;;6305900;22;20073;-86
2022/10/19 04:19:06;;;;;;;9.25;7.13;;;;;;;;;;6307055;22;19999;-86
2022/10/19 04:21:36;;;;;;;11.52;8.00;;;;;;;;;;6305998;22;20057;-81
2022/10/19 04:24:03;;;;;;;10.57;8.40;;;;;;;;;;6307109;22;19999;-85
2022/10/19 04:26:30;;;;;;;15.60;9.90;;;;;;;;;;6307236;22;20441;-85
2022/10/19 04:28:59;;;;;;;13.82;9.77;;;;;;;;;;6307131;22;20064;-84
2022/10/19 04:31:25;;;;;;;13.15;10.55;;;;;;;;;;6307066;22;20027;-84
2022/10/19 04:33:51;;;;;;;16.02;11.45;;;;;;;;;;6306934;22;20078;-84
2022/10/19 04:36:17;;;;;;;20.42;15.02;;;;;;;;;;6279435;22;20387;-84
2022/10/19 04:38:44;;;;;;;25.77;19.73;;;;;;;;;;6307042;22;20075;-83
2022/10/19 04:41:12;;;;;;;20.15;16.35;;;;;;;;;;6306664;22;19995;-85
2022/10/19 04:43:38;;;;;;;24.63;17.60;;;;;;;;;;6307059;22;20014;-83
2022/10/19 04:46:05;;;;;;;24.10;17.25;;;;;;;;;;6306956;22;19999;-82
2022/10/19 04:48:31;;;;;;;17.83;12.88;;;;;;;;;;6307046;22;20070;-84
2022/10/19 04:50:57;;;;;;;10.90;7.95;;;;;;;;;;6279724;22;20041;-85
2022/10/19 04:53:23;;;;;;;13.50;10.50;;;;;;;;;;6306600;22;20026;-83
2022/10/19 04:55:49;;;;;;;16.55;12.60;;;;;;;;;;6306871;22;20007;-84
2022/10/19 04:58:16;;;;;;;18.75;14.88;;;;;;;;;;6306936;22;20034;-83
2022/10/19 05:00:42;;;;;;;13.52;10.43;;;;;;;;;;6307178;22;20062;-85
2022/10/19 05:03:08;;;;;;;14.38;10.35;;;;;;;;;;6306762;22;19999;-83
2022/10/19 05:05:34;;;;;;;13.45;10.73;;;;;;;;;;6306684;22;20078;-84
2022/10/19 05:08:01;;;;;;;14.23;10.88;;;;;;;;;;6307459;22;20030;-84
2022/10/19 05:10:27;;;;;;;14.73;11.02;;;;;;;;;;6306784;22;20414;-84
2022/10/19 05:12:53;;;;;;;16.25;12.95;;;;;;;;;;6306898;22;20007;-84
2022/10/19 05:15:19;;;;;;;14.52;10.07;;;;;;;;;;6306496;22;20334;-84
2022/10/19 05:17:45;;;;;;;11.55;9.00;;;;;;;;;;6306837;22;20070;-86
2022/10/19 05:20:11;;;;;;;20.27;14.52;;;;;;;;;;6306779;22;19999;-85
2022/10/19 05:22:38;;;;;;;14.45;11.63;;;;;;;;;;6279092;22;20501;-84
2022/10/19 05:25:04;;;;;;;27.77;20.50;;;;;;;;;;6306620;22;20070;-86
2022/10/19 05:27:30;;;;;;;19.27;15.02;;;;;;;;;;6306471;22;20096;-85
2022/10/19 05:29:56;;;;;;;33.25;24.65;;;;;;;;;;6304449;22;20007;-82
2022/10/19 05:32:23;;;;;;;38.40;26.38;;;;;;;;;;6304930;22;20010;-84
2022/10/19 05:34:49;;;;;;;39.78;26.23;;;;;;;;;;6301909;22;20019;-82
2022/10/19 05:37:18;;;;;;;36.70;25.45;;;;;;;;;;6305067;22;20407;-84
2022/10/19 05:39:44;;;;;;;76.10;48.45;;;;;;;;;;6304434;22;19995;-84
2022/10/19 05:42:10;;;;;;;42.53;28.05;;;;;;;;;;6303850;22;19992;-82
2022/10/19 05:44:36;;;;;;;35.35;23.52;;;;;;;;;;6304574;22;20014;-81
2022/10/19 05:47:02;;;;;;;36.47;27.08;;;;;;;;;;6303524;22;20748;-83
2022/10/19 05:49:28;;;;;;;40.63;28.27;;;;;;;;;;6304178;22;20003;-85
2022/10/19 05:51:55;;;;;;;45.97;30.35;;;;;;;;;;6275363;22;20018;-82
2022/10/19 05:54:21;;;;;;;39.88;28.23;;;;;;;;;;6305854;22;20030;-83
2022/10/19 05:56:47;;;;;;;44.38;30.80;;;;;;;;;;6279344;22;19999;-81
2022/10/19 05:59:15;;;;;;;42.35;29.85;;;;;;;;;;6306501;22;20755;-82
2022/10/19 06:01:41;;;;;;;41.67;28.63;;;;;;;;;;6306943;22;20044;-79
2022/10/19 06:04:07;;;;;;;39.25;28.52;;;;;;;;;;6305880;22;20073;-71
2022/10/19 06:06:33;;;;;;;29.10;23.17;;;;;;;;;;6305689;22;19999;-75
2022/10/19 06:08:59;;;;;;;25.67;19.17;;;;;;;;;;6305762;22;20070;-84
2022/10/19 06:11:30;;;;;;;85.43;39.20;;;;;;;;;;6307089;22;19995;-83
2022/10/19 06:13:58;;;;;;;136.65;55.80;;;;;;;;;;6278131;22;20331;-82
2022/10/19 06:16:25;;;;;;;144.13;57.67;;;;;;;;;;6305904;22;20396;-80
2022/10/19 06:18:55;;;;;;;101.93;48.13;;;;;;;;;;6306317;22;19999;-81
2022/10/19 06:21:23;;;;;;;71.68;39.53;;;;;;;;;;6306834;22;20003;-86
2022/10/19 06:23:51;;;;;;;64.93;36.08;;;;;;;;;;6306783;22;20057;-78
2022/10/19 06:26:17;;;;;;;54.72;32.28;;;;;;;;;;6306230;22;20088;-79
2022/10/19 06:28:43;;;;;;;36.53;23.55;;;;;;;;;;6306480;22;20061;-80
2022/10/19 06:31:10;;;;;;;30.52;22.27;;;;;;;;;;6305680;22;20007;-80
2022/10/19 06:33:36;;;;;;;27.67;20.50;;;;;;;;;;6306472;22;20007;-81
2022/10/19 06:36:09;;;;;;;24.17;19.27;;;;;;;;;;6306314;22;20053;-83
2022/10/19 06:38:35;;;;;;;18.08;14.30;;;;;;;;;;6306217;22;20300;-87
2022/10/19 06:41:01;;;;;;;18.88;14.65;;;;;;;;;;6305927;22;20058;-82
2022/10/19 06:43:27;;;;;;;25.40;18.55;;;;;;;;;;6278916;22;20003;-83
2022/10/19 06:45:56;;;;;;;20.98;16.55;;;;;;;;;;6305966;22;20018;-85
2022/10/19 06:48:29;;;;;;;20.30;14.18;;;;;;;;;;6304874;22;20076;-87
2022/10/19 06:51:14;;;;;;;20.60;15.15;;;;;;;;;;6278063;22;20064;-82
2022/10/19 06:53:42;;;;;;;;;;;;;;;;;;6306921;22;20162;-85
2022/10/19 06:56:09;;;;;;;20.73;11.90;;;;;;;;;;6303505;22;19899;-82
2022/10/19 06:58:38;;;;;;;20.52;12.68;;;;;;;;;;6306374;22;20013;-81
2022/10/19 07:01:09;;;;;;;16.13;11.90;;;;;;;;;;6305696;22;20327;-85
2022/10/19 07:03:35;;;;;;;12.55;10.45;;;;;;;;;;6305984;22;20007;-81
2022/10/19 07:06:03;;;;;;;15.75;11.45;;;;;;;;;;6306467;22;20003;-85
2022/10/19 07:08:30;;;;;;;14.45;11.25;;;;;;;;;;6306095;22;20095;-83
2022/10/19 07:10:57;;;;;;;16.05;12.00;;;;;;;;;;6306372;22;20007;-84
2022/10/19 07:13:24;;;;;;;13.27;10.95;;;;;;;;;;6305106;22;20427;-85
2022/10/19 07:15:55;;;;;;;17.65;9.38;;;;;;;;;;6306204;22;20064;-84
2022/10/19 07:18:22;;;;;;;35.65;15.90;;;;;;;;;;6304499;22;20007;-86
2022/10/19 07:20:58;;;;;;;17.05;10.18;;;;;;;;;;6279031;22;20003;-82
2022/10/19 07:23:28;;;;;;;45.28;24.58;;;;;;;;;;6305531;22;20056;-84
2022/10/19 07:26:15;;;;;;;28.77;16.20;;;;;;;;;;6278837;22;20039;-85
2022/10/19 07:28:42;;;;;;;26.00;15.50;;;;;;;;;;6305864;22;20078;-84
2022/10/19 07:31:11;;;;;;;17.92;10.07;;;;;;;;;;6305845;22;20004;-84
2022/10/19 07:33:37;;;;;;;21.15;12.88;;;;;;;;;;6305660;22;20419;-85
2022/10/19 07:36:05;;;;;;;19.33;12.93;;;;;;;;;;6305952;22;20006;-84
2022/10/19 07:38:32;;;;;;;23.20;13.15;;;;;;;;;;6306112;22;20026;-84
2022/10/19 07:41:17;;;;;;;14.90;11.05;;;;;;;;;;6277104;22;20343;-83
2022/10/19 07:43:43;;;;;;;;;;;;;;;;;;6306850;22;20014;-84
2022/10/19 07:46:11;;;;;;;12.35;9.75;;;;;;;;;;6306450;22;19898;-83
2022/10/19 07:48:37;;;;;;;23.60;14.20;;;;;;;;;;6305566;22;20010;-86
2022/10/19 07:51:05;;;;;;;18.73;12.75;;;;;;;;;;6277523;22;20081;-82
2022/10/19 07:53:33;;;;;;;25.80;15.88;;;;;;;;;;6304880;22;20056;-84
2022/10/19 07:56:06;;;;;;;22.25;13.38;;;;;;;;;;6278619;22;20065;-82
2022/10/19 07:58:57;;;;;;;57.30;41.95;;;;;;;;;;6305538;22;20007;-88
2022/10/19 08:01:47;;;;;;;;;;;;;;;;;;;;;
2022/10/19 08:04:13;;;;;;;26.85;15.57;;;;;;;;;;6305358;22;20394;-85
2022/10/19 08:06:39;;;;;;;165.45;60.63;;;;;;;;;;6306363;22;20119;-81
2022/10/19 08:09:06;;;;;;;44.45;20.20;;;;;;;;;;6305508;22;20013;-80
2022/10/19 08:11:35;;;;;;;20.75;12.85;;;;;;;;;;6304637;22;19999;-83
2022/10/19 08:14:02;;;;;;;16.30;12.68;;;;;;;;;;6304796;22;20426;-82
2022/10/19 08:16:31;;;;;;;16.67;12.45;;;;;;;;;;6304476;22;19999;-80
2022/10/19 08:18:59;;;;;;;19.50;14.30;;;;;;;;;;6305949;22;20328;-82
2022/10/19 08:21:25;;;;;;;16.75;11.23;;;;;;;;;;6304743;22;20003;-80
2022/10/19 08:23:51;;;;;;;13.40;10.43;;;;;;;;;;6305040;22;20010;-81
2022/10/19 08:26:21;;;;;;;16.83;10.63;;;;;;;;;;6305577;22;20373;-80
2022/10/19 08:28:47;;;;;;;16.67;12.20;;;;;;;;;;6305212;22;20019;-80
2022/10/19 08:31:15;;;;;;;13.40;11.10;;;;;;;;;;6305143;22;20041;-80
2022/10/19 08:33:41;;;;;;;13.63;10.90;;;;;;;;;;6304359;22;19999;-80
2022/10/19 08:36:08;;;;;;;19.17;14.38;;;;;;;;;;6305066;22;20369;-81
2022/10/19 08:38:35;;;;;;;17.42;11.50;;;;;;;;;;6304665;22;20006;-79
2022/10/19 08:41:07;;;;;;;13.48;10.27;;;;;;;;;;6277480;22;20405;-80
2022/10/19 08:43:36;;;;;;;13.80;11.43;;;;;;;;;;6305162;22;20057;-83
2022/10/19 08:46:08;;;;;;;22.95;17.73;;;;;;;;;;6304862;22;20002;-86
2022/10/19 08:48:36;;;;;;;12.65;11.02;;;;;;;;;;6304731;22;20009;-84
2022/10/19 08:51:04;;;;;;;9.50;8.50;;;;;;;;;;6276782;22;20468;-82
2022/10/19 08:53:42;;;;;;;10.85;7.72;;;;;;;;;;6305176;22;20430;-83
2022/10/19 08:56:27;;;;;;;10.30;9.27;;;;;;;;;;6305767;22;20010;-81
2022/10/19 08:59:05;;;;;;;12.60;9.82;;;;;;;;;;6305301;22;20011;-84
2022/10/19 09:01:39;;;;;;;11.45;8.68;;;;;;;;;;6303648;22;19995;-82
2022/10/19 09:04:05;;;;;;;9.77;8.35;;;;;;;;;;6304164;22;20015;-83
2022/10/19 09:06:34;;;;;;;9.55;8.48;;;;;;;;;;6304801;22;20000;-83
2022/10/19 09:09:00;;;;;;;9.50;8.50;;;;;;;;;;6304604;22;20010;-86
2022/10/19 09:11:30;;;;;;;15.18;9.85;;;;;;;;;;6305420;22;20062;-83
2022/10/19 09:14:04;;;;;;;9.95;8.50;;;;;;;;;;6304109;22;20003;-82
2022/10/19 09:16:30;;;;;;;11.02;8.73;;;;;;;;;;6305007;22;19999;-84
2022/10/19 09:18:56;;;;;;;8.88;7.35;;;;;;;;;;6304687;22;20327;-88
2022/10/19 09:21:24;;;;;;;11.77;9.27;;;;;;;;;;6305202;22;19996;-83
2022/10/19 09:23:50;;;;;;;11.13;8.30;;;;;;;;;;6302583;22;20003;-84
2022/10/19 09:26:21;;;;;;;13.65;10.07;;;;;;;;;;6304009;22;20010;-81
2022/10/19 09:28:49;;;;;;;15.45;10.20;;;;;;;;;;6307491;22;19999;-83
2022/10/19 09:31:19;;;;;;;9.85;8.15;;;;;;;;;;6306899;22;20028;-85
2022/10/19 09:33:45;;;;;;;15.15;9.73;;;;;;;;;;6306335;22;20010;-85
2022/10/19 09:36:11;;;;;;;12.52;8.57;;;;;;;;;;6304511;22;20003;-81
2022/10/19 09:38:38;;;;;;;10.10;8.77;;;;;;;;;;6305316;22;20365;-82
2022/10/19 09:41:22;;;;;;;15.43;8.40;;;;;;;;;;6307142;22;20422;-84
2022/10/19 09:43:52;;;;;;;14.88;8.18;;;;;;;;;;6305057;22;20000;-83
2022/10/19 09:46:26;;;;;;;9.90;8.82;;;;;;;;;;6306868;22;20429;-83
2022/10/19 09:48:52;;;;;;;13.43;9.13;;;;;;;;;;6307273;22;20545;-83
2022/10/19 09:51:19;;;;;;;10.55;8.45;;;;;;;;;;6306448;22;20038;-81
2022/10/19 09:53:45;;;;;;;11.52;8.27;;;;;;;;;;6307230;22;20004;-82
2022/10/19 09:56:18;;;;;;;11.93;8.73;;;;;;;;;;6306143;22;20027;-77
2022/10/19 09:58:51;;;;;;;11.57;8.18;;;;;;;;;;6306604;22;20064;-80
2022/10/19 10:01:37;;;;;;;14.95;8.70;;;;;;;;;;6302508;22;20422;-78
2022/10/19 10:04:07;;;;;;;13.20;7.95;;;;;;;;;;6306431;22;20025;-80
2022/10/19 10:06:34;;;;;;;10.00;5.90;;;;;;;;;;6304910;22;20007;-82
2022/10/19 10:09:00;;;;;;;14.05;5.97;;;;;;;;;;6305872;22;19995;-83
2022/10/19 10:11:33;;;;;;;8.32;6.57;;;;;;;;;;6306970;22;20006;-78
2022/10/19 10:14:05;;;;;;;9.90;6.93;;;;;;;;;;6306699;22;20000;-81
2022/10/19 10:16:35;;;;;;;9.18;6.63;;;;;;;;;;6307341;22;19999;-82
2022/10/19 10:19:08;;;;;;;10.75;8.85;;;;;;;;;;6306864;22;20427;-82
2022/10/19 10:21:45;;;;;;;22.52;11.13;;;;;;;;;;6306284;22;20027;-84
2022/10/19 10:24:11;;;;;;;10.15;7.22;;;;;;;;;;6305628;22;20030;-79
2022/10/19 10:26:39;;;;;;;12.23;8.32;;;;;;;;;;6306158;22;20120;-85
2022/10/19 10:29:16;;;;;;;20.50;8.02;;;;;;;;;;6303144;22;20027;-83
2022/10/19 10:31:42;;;;;;;14.93;7.60;;;;;;;;;;6306710;22;20021;-83
2022/10/19 10:34:16;;;;;;;17.95;8.88;;;;;;;;;;6278491;22;20759;-80
2022/10/19 10:36:43;;;;;;;8.63;5.47;;;;;;;;;;6306247;22;20066;-84
2022/10/19 10:39:14;;;;;;;7.50;5.88;;;;;;;;;;6303994;22;20335;-81
2022/10/19 10:41:42;;;;;;;14.40;6.00;;;;;;;;;;6306346;22;20002;-85
2022/10/19 10:44:25;;;;;;;12.95;5.20;;;;;;;;;;6302445;22;20010;-85
2022/10/19 10:46:54;;;;;;;7.88;3.85;;;;;;;;;;6278805;22;20015;-83
2022/10/19 10:49:48;;;;;;;6.88;4.25;;;;;;;;;;6305559;22;20000;-82
2022/10/19 10:52:29;;;;;;;32.58;5.13;;;;;;;;;;6269191;22;20011;-81
2022/10/19 10:54:58;;;;;;;5.00;3.92;;;;;;;;;;6303139;22;20031;-82
2022/10/19 10:57:26;;;;;;;5.65;3.45;;;;;;;;;;6305290;22;20002;-82
2022/10/19 11:00:01;;;;;;;7.05;4.28;;;;;;;;;;6305874;22;20003;-79
2022/10/19 11:02:31;;;;;;;6.22;3.60;;;;;;;;;;6304284;22;20057;-79
2022/10/19 11:05:01;;;;;;;7.35;4.05;;;;;;;;;;6305970;22;20442;-84
2022/10/19 11:07:28;;;;;;;6.45;3.88;;;;;;;;;;6304829;22;20010;-84
2022/10/19 11:09:57;;;;;;;5.53;3.90;;;;;;;;;;6306108;22;20444;-80
2022/10/19 11:12:36;;;;;;;5.32;3.42;;;;;;;;;;6304745;22;20006;-80
2022/10/19 11:15:05;;;;;;;4.72;3.72;;;;;;;;;;6305606;22;20007;-81
2022/10/19 11:17:32;;;;;;;8.70;4.10;;;;;;;;;;6305392;22;19999;-82
2022/10/19 11:19:58;;;;;;;6.38;4.75;;;;;;;;;;6305749;22;20010;-86
2022/10/19 11:22:29;;;;;;;4.65;4.15;;;;;;;;;;6306107;22;20446;-80
2022/10/19 11:25:01;;;;;;;9.93;5.07;;;;;;;;;;6304490;22;20007;-85
2022/10/19 11:27:41;;;;;;;7.15;3.90;;;;;;;;;;6305687;22;20007;-82
2022/10/19 11:30:09;;;;;;;7.80;5.32;;;;;;;;;;6305487;22;20453;-80
2022/10/19 11:32:35;;;;;;;10.35;6.65;;;;;;;;;;6305222;22;20003;-83
2022/10/19 11:35:20;;;;;;;11.38;6.47;;;;;;;;;;6305500;22;20003;-80
2022/10/19 11:37:55;;;;;;;5.88;4.28;;;;;;;;;;6305458;22;20007;-81
2022/10/19 11:40:39;;;;;;;5.88;4.40;;;;;;;;;;6305422;22;20020;-78
2022/10/19 11:43:12;;;;;;;7.32;4.70;;;;;;;;;;6305372;22;20165;-83
2022/10/19 11:45:47;;;;;;;6.30;5.00;;;;;;;;;;6303660;22;20019;-79
2022/10/19 11:48:13;;;;;;;7.75;5.30;;;;;;;;;;6305766;22;20384;-85
2022/10/19 11:50:42;;;;;;;9.90;4.93;;;;;;;;;;6306205;22;20026;-83
2022/10/19 11:53:11;;;;;;;6.63;5.13;;;;;;;;;;6305970;22;20235;-83
2022/10/19 11:55:45;;;;;;;8.38;4.22;;;;;;;;;;6306140;22;20426;-84
2022/10/19 11:58:11;;;;;;;9.30;4.90;;;;;;;;;;6306593;22;20885;-81
2022/10/19 12:00:45;;;;;;;7.57;5.07;;;;;;;;;;6306315;22;20149;-83
2022/10/19 12:03:14;;;;;;;8.63;5.35;;;;;;;;;;6303329;22;20034;-86
2022/10/19 12:05:52;;;;;;;8.65;4.45;;;;;;;;;;6305605;22;20035;-80
2022/10/19 12:08:22;;;;;;;7.68;5.13;;;;;;;;;;6305619;22;19999;-79
2022/10/19 12:11:04;;;;;;;6.85;4.97;;;;;;;;;;6306146;22;20640;-83
2022/10/19 12:13:50;;;;;;;6.00;4.63;;;;;;;;;;6305530;22;20003;-80
2022/10/19 12:16:16;;;;;;;8.20;5.20;;;;;;;;;;6305193;22;19999;-81
2022/10/19 12:18:45;;;;;;;8.07;4.93;;;;;;;;;;6305991;22;20315;-86
2022/10/19 12:21:17;;;;;;;10.63;5.68;;;;;;;;;;6305106;22;20335;-83
2022/10/19 12:23:45;;;;;;;6.75;5.55;;;;;;;;;;6305866;22;20066;-84
2022/10/19 12:26:14;;;;;;;6.32;5.05;;;;;;;;;;6305779;22;20003;-82
2022/10/19 12:28:42;;;;;;;35.25;22.67;;;;;;;;;;6306354;22;20060;-84
2022/10/19 12:31:10;;;;;;;7.30;5.68;;;;;;;;;;6306733;22;20011;-81
2022/10/19 12:33:39;;;;;;;7.82;6.10;;;;;;;;;;6306281;22;20004;-80
2022/10/19 12:36:14;;;;;;;7.82;5.22;;;;;;;;;;6306688;22;20472;-79
2022/10/19 12:38:40;;;;;;;7.18;5.10;;;;;;;;;;6304937;22;20366;-78
2022/10/19 12:41:13;;;;;;;6.68;5.03;;;;;;;;;;6306589;22;20071;-81
2022/10/19 12:43:58;;;;;;;7.63;5.47;;;;;;;;;;6305936;22;20018;-82
2022/10/19 12:46:42;;;;;;;6.18;4.93;;;;;;;;;;6306092;22;20003;-80
2022/10/19 12:49:08;;;;;;;;;;;;;;;;;;6306720;22;20038;-84
2022/10/19 12:51:44;;;;;;;8.40;5.30;;;;;;;;;;6305405;22;19899;-82
2022/10/19 12:54:11;;;;;;;6.75;5.18;;;;;;;;;;6306602;22;20009;-80
2022/10/19 12:56:56;;;;;;;10.32;5.10;;;;;;;;;;6304440;22;19999;-80
2022/10/19 12:59:24;;;;;;;6.45;4.90;;;;;;;;;;6305163;22;20598;-85
2022/10/19 13:01:50;;;;;;;5.82;4.95;;;;;;;;;;6304393;22;20458;-82
2022/10/19 13:04:24;;;;;;;7.47;5.47;;;;;;;;;;6305109;22;20018;-82
2022/10/19 13:06:58;;;;;;;8.50;5.55;;;;;;;;;;6304534;22;20010;-84
2022/10/19 13:09:30;;;;;;;5.70;4.93;;;;;;;;;;6304462;22;20327;-83
2022/10/19 13:12:15;;;;;;;7.85;5.65;;;;;;;;;;6304915;22;20049;-85
2022/10/19 13:14:43;;;;;;;6.18;5.00;;;;;;;;;;6305631;22;19999;-79
2022/10/19 13:17:09;;;;;;;6.88;5.07;;;;;;;;;;6304348;22;19995;-81
2022/10/19 13:19:35;;;;;;;6.75;4.93;;;;;;;;;;6305124;22;20045;-80
2022/10/19 13:22:01;;;;;;;7.60;4.88;;;;;;;;;;6304593;22;20029;-85
2022/10/19 13:24:29;;;;;;;8.68;4.93;;;;;;;;;;6304377;22;20011;-77
2022/10/19 13:27:02;;;;;;;6.88;5.20;;;;;;;;;;6277391;22;19999;-82
2022/10/19 13:29:40;;;;;;;7.38;4.80;;;;;;;;;;6302904;22;19996;-85
2022/10/19 13:32:24;;;;;;;10.10;5.85;;;;;;;;;;6304847;22;20000;-84
2022/10/19 13:34:50;;;;;;;;;;;;;;;;;;6305549;22;20006;-84
2022/10/19 13:37:18;;;;;;;8.27;5.25;;;;;;;;;;6305016;22;19899;-77
2022/10/19 13:39:44;;;;;;;7.97;5.65;;;;;;;;;;6302919;22;20079;-83
2022/10/19 13:42:29;;;;;;;7.30;5.70;;;;;;;;;;6305090;22;20300;-86
2022/10/19 13:44:55;;;;;;;6.80;5.72;;;;;;;;;;6306569;22;20007;-82
2022/10/19 13:47:41;;;;;;;7.13;5.18;;;;;;;;;;6306729;22;20026;-82
2022/10/19 13:50:07;;;;;;;6.95;5.28;;;;;;;;;;6306297;22;20077;-82
2022/10/19 13:52:49;;;;;;;6.97;5.47;;;;;;;;;;6306391;22;20335;-81
2022/10/19 13:55:34;;;;;;;6.32;5.70;;;;;;;;;;6306620;22;20304;-82
2022/10/19 13:58:19;;;;;;;8.65;6.03;;;;;;;;;;6306246;22;20011;-80
2022/10/19 14:01:03;;;;;;;7.43;5.65;;;;;;;;;;6306276;22;20002;-83
2022/10/19 14:03:48;;;;;;;8.65;5.57;;;;;;;;;;6306198;22;20053;-81
2022/10/19 14:06:14;;;;;;;;;;;;;;;;;;6306438;22;19995;-82
2022/10/19 14:08:47;;;;;;;7.95;5.20;;;;;;;;;;6305586;22;19899;-82
2022/10/19 14:11:13;;;;;;;9.95;6.10;;;;;;;;;;6306877;22;20014;-86
2022/10/19 14:13:39;;;;;;;7.82;6.25;;;;;;;;;;6305778;22;20023;-84
2022/10/19 14:16:05;;;;;;;6.43;5.35;;;;;;;;;;6307998;22;19991;-86
2022/10/19 14:18:32;;;;;;;6.32;5.05;;;;;;;;;;6308252;22;20079;-81
2022/10/19 14:21:03;;;;;;;8.35;6.15;;;;;;;;;;6307919;22;20002;-82
2022/10/19 14:23:31;;;;;;;8.98;5.47;;;;;;;;;;6308139;22;20410;-83
2022/10/19 14:26:02;;;;;;;6.82;5.65;;;;;;;;;;6307887;22;19999;-82
2022/10/19 14:28:28;;;;;;;8.85;6.35;;;;;;;;;;6308029;22;19995;-83
2022/10/19 14:31:01;;;;;;;9.32;6.22;;;;;;;;;;6307653;22;19995;-84
2022/10/19 14:33:35;;;;;;;7.93;6.85;;;;;;;;;;6307615;22;19995;-81
2022/10/19 14:36:02;;;;;;;8.20;5.97;;;;;;;;;;6308058;22;19999;-85
2022/10/19 14:38:39;;;;;;;7.43;5.75;;;;;;;;;;6307746;22;19995;-85
2022/10/19 14:41:06;;;;;;;8.32;5.93;;;;;;;;;;6308084;22;19999;-79
2022/10/19 14:43:33;;;;;;;7.75;6.05;;;;;;;;;;6307925;22;20003;-84
2022/10/19 14:46:18;;;;;;;6.57;5.30;;;;;;;;;;6308026;22;19995;-85
2022/10/19 14:48:48;;;;;;;7.53;5.32;;;;;;;;;;6306453;22;20431;-83